Time;durP1;ratioP1;P1;durP2;ratioP2;P2;SDS_P1;SDS_P2;PMS_P1;PMS_P2;Temp;Humidity;BMP_temperature;BMP_pressure;BME280_temperature;BME280_humidity;BME280_pressure;Samples;Min_cycle;Max_cycle;Signal;HPM_P1;HPM_P2
2023/05/23 00:02:00;;;;;;;0.30;0.30;;;23.40;61.30;;;24.05;43.41;94571.84;5075572;28;20190;-35
2023/05/23 00:04:28;;;;;;;0.40;0.40;;;23.40;61.30;;;24.01;43.32;94579.66;5075125;28;20219;-34
2023/05/23 00:06:55;;;;;;;0.40;0.40;;;23.40;61.40;;;23.99;43.21;94579.13;5075056;28;20638;-35
2023/05/23 00:09:22;;;;;;;0.30;0.30;;;23.40;61.50;;;23.96;43.17;94574.31;5074748;28;20629;-34
2023/05/23 00:11:49;;;;;;;0.40;0.40;;;23.40;61.50;;;23.95;43.35;94575.44;5057424;28;20227;-34
2023/05/23 00:14:17;;;;;;;0.30;0.30;;;23.40;61.50;;;23.92;43.30;94570.59;5073981;28;20218;-34
2023/05/23 00:16:45;;;;;;;0.40;0.40;;;23.30;61.50;;;23.90;43.63;94576.25;5074865;28;20273;-34
2023/05/23 00:19:15;;;;;;;0.40;0.40;;;23.30;61.60;;;23.89;43.50;94568.47;5074720;28;20625;-34
2023/05/23 00:21:49;;;;;;;0.30;0.30;;;23.30;61.60;;;23.85;43.51;94559.44;5074893;28;20194;-34
2023/05/23 00:24:17;;;;;;;0.30;0.30;;;23.30;61.70;;;23.83;43.67;94567.75;5075406;28;20264;-34
2023/05/23 00:26:45;;;;;;;0.40;0.40;;;23.20;61.60;;;23.81;43.45;94565.38;5074991;28;20195;-34
2023/05/23 00:29:17;;;;;;;0.40;0.40;;;23.20;61.60;;;23.80;43.68;94568.31;5073794;28;20237;-34
2023/05/23 00:31:45;;;;;;;0.30;0.30;;;23.20;61.70;;;23.77;43.74;94561.66;5074012;28;20233;-34
2023/05/23 00:34:16;;;;;;;0.30;0.30;;;23.20;61.60;;;23.76;43.58;94564.63;5074680;28;20203;-34
2023/05/23 00:36:46;;;;;;;0.40;0.40;;;23.20;61.70;;;23.73;43.71;94565.97;5073734;28;20261;-34
2023/05/23 00:39:20;;;;;;;0.38;0.38;;;23.10;61.70;;;23.71;43.74;94567.34;5073872;28;20340;-34
2023/05/23 00:41:49;;;;;;;0.40;0.40;;;23.10;61.70;;;23.70;43.55;94568.44;5073774;28;20198;-34
2023/05/23 00:44:20;;;;;;;0.40;0.40;;;23.10;61.80;;;23.65;43.76;94564.69;5073728;28;20200;-33
2023/05/23 00:46:57;;;;;;;0.40;0.40;;;23.10;61.80;;;23.63;43.84;94556.19;5074416;28;20198;-34
2023/05/23 00:49:26;;;;;;;0.40;0.40;;;23.10;61.90;;;23.63;43.81;94563.41;5074829;28;20199;-34
2023/05/23 00:51:54;;;;;;;0.30;0.30;;;23.00;61.80;;;23.59;43.78;94563.16;5075025;28;20230;-34
2023/05/23 00:54:30;;;;;;;0.40;0.40;;;23.00;61.80;;;23.57;43.62;94567.19;5074482;28;20281;-34
2023/05/23 00:56:57;;;;;;;0.40;0.40;;;23.00;61.80;;;23.55;43.99;94564.03;5074749;28;20517;-34
2023/05/23 00:59:26;;;;;;;0.40;0.40;;;23.00;61.80;;;23.54;44.04;94565.09;5073421;28;20186;-34
2023/05/23 01:01:56;;;;;;;0.40;0.40;;;23.00;61.80;;;23.52;43.76;94567.25;5076398;28;20261;-34
2023/05/23 01:04:27;;;;;;;0.40;0.40;;;22.90;61.80;;;23.48;43.65;94569.69;5060878;28;20345;-34
2023/05/23 01:06:55;;;;;;;0.40;0.40;;;22.90;61.70;;;23.45;43.94;94565.72;5078264;28;20195;-34
2023/05/23 01:09:26;;;;;;;0.40;0.40;;;22.90;61.70;;;23.41;43.80;94570.03;5078122;28;20208;-34
2023/05/23 01:12:26;;;;;;;0.40;0.40;;;22.90;61.70;;;23.36;44.00;94569.28;5076999;28;20331;-34
2023/05/23 01:15:05;;;;;;;0.50;0.50;;;22.90;61.70;;;23.29;44.08;94567.72;5077996;28;20260;-34
2023/05/23 01:17:51;;;;;;;0.40;0.40;;;22.80;62.60;;;23.27;43.65;94567.19;5077833;28;20199;-36
2023/05/23 01:20:26;;;;;;;0.40;0.40;;;22.80;61.70;;;23.23;43.96;94560.00;5077968;28;20186;-36
2023/05/23 01:23:10;;;;;;;0.40;0.40;;;22.80;61.70;;;23.22;44.05;94561.91;5077099;28;20179;-36
2023/05/23 01:25:58;;;;;;;0.50;0.50;;;22.70;61.50;;;23.17;44.04;94562.72;5077460;28;20186;-35
2023/05/23 01:28:44;;;;;;;0.40;0.40;;;22.70;61.50;;;23.13;43.51;94560.84;5077652;28;20189;-34
2023/05/23 01:31:12;;;;;;;0.40;0.40;;;22.70;61.50;;;23.12;43.70;94568.09;5043971;28;20659;-35
2023/05/23 01:33:40;;;;;;;0.40;0.40;;;22.60;61.50;;;23.09;43.77;94565.19;5077958;28;20221;-34
2023/05/23 01:36:09;;;;;;;0.40;0.40;;;22.60;61.50;;;23.07;43.85;94568.16;5076807;28;20224;-34
2023/05/23 01:38:36;;;;;;;0.40;0.40;;;22.60;61.50;;;23.06;43.97;94569.22;5077363;28;20244;-34
2023/05/23 01:41:03;;;;;;;0.50;0.50;;;22.60;61.60;;;23.03;43.68;94559.06;5077764;28;20300;-35
2023/05/23 01:43:30;;;;;;;0.40;0.40;;;22.50;61.50;;;23.02;44.04;94557.47;5076565;28;20205;-34
2023/05/23 01:45:59;;;;;;;0.43;0.43;;;22.50;61.50;;;23.01;44.01;94566.59;5059939;28;20619;-34
2023/05/23 01:48:28;;;;;;;0.40;0.40;;;22.50;61.60;;;23.00;43.67;94562.31;5059755;28;20209;-34
2023/05/23 01:50:56;;;;;;;0.38;0.38;;;22.50;61.50;;;22.98;43.87;94551.09;5077595;28;20234;-35
2023/05/23 01:53:24;;;;;;;0.40;0.40;;;22.50;61.60;;;22.97;44.11;94557.50;5060214;28;20570;-34
2023/05/23 01:55:52;;;;;;;0.50;0.50;;;22.50;61.60;;;22.94;43.99;94544.72;5076740;28;20686;-35
2023/05/23 01:58:21;;;;;;;0.30;0.30;;;22.40;61.50;;;22.91;43.88;94553.28;5076131;28;20296;-33
2023/05/23 02:00:48;;;;;;;0.30;0.30;;;22.40;61.50;;;22.89;43.65;94555.41;5076225;28;20206;-33
2023/05/23 02:03:15;;;;;;;0.50;0.50;;;22.40;61.50;;;22.84;43.73;94549.03;5076172;28;20213;-34
2023/05/23 02:05:43;;;;;;;0.50;0.50;;;22.40;61.50;;;22.82;43.71;94553.06;5059650;28;20300;-33
2023/05/23 02:08:10;;;;;;;0.30;0.30;;;22.40;61.50;;;22.79;43.75;94545.59;5075945;28;20268;-34
2023/05/23 02:10:37;;;;;;;0.40;0.40;;;22.40;61.40;;;22.77;43.79;94547.75;5076347;28;20307;-34
2023/05/23 02:13:04;;;;;;;0.43;0.43;;;22.30;61.40;;;22.73;44.05;94552.06;5075443;28;20317;-33
2023/05/23 02:15:31;;;;;;;0.45;0.45;;;22.30;61.40;;;22.69;43.70;94546.47;5075885;28;20640;-34
2023/05/23 02:18:00;;;;;;;0.40;0.40;;;22.20;61.30;;;22.66;43.92;94549.69;5075706;28;20205;-33
2023/05/23 02:20:28;;;;;;;0.50;0.50;;;22.20;61.40;;;22.63;43.68;94553.72;5076988;28;20276;-33
2023/05/23 02:22:55;;;;;;;0.40;0.40;;;22.20;62.30;;;22.60;44.00;94546.25;5075892;28;20196;-33
2023/05/23 02:25:22;;;;;;;0.40;0.40;;;22.20;61.30;;;22.57;43.63;94538.81;5075718;28;20293;-33
2023/05/23 02:27:49;;;;;;;0.40;0.40;;;22.20;61.40;;;22.55;43.86;94543.63;5075482;28;20207;-34
2023/05/23 02:30:16;;;;;;;0.47;0.47;;;22.10;61.30;;;22.53;43.65;94543.09;5076838;28;20205;-33
2023/05/23 02:32:43;;;;;;;0.40;0.40;;;22.10;61.30;;;22.50;43.88;94541.75;5058912;28;20294;-37
2023/05/23 02:35:12;;;;;;;0.38;0.38;;;22.10;61.30;;;22.47;43.97;94541.53;5075541;28;20213;-33
2023/05/23 02:37:40;;;;;;;0.40;0.40;;;22.10;61.30;;;22.46;43.86;94539.91;5076256;28;20197;-33
2023/05/23 02:40:08;;;;;;;0.30;0.30;;;22.00;61.30;;;22.43;44.07;94535.94;5076344;28;20581;-33
2023/05/23 02:42:35;;;;;;;0.43;0.43;;;22.00;61.30;;;22.41;43.98;94534.59;5075367;28;20240;-34
2023/05/23 02:45:03;;;;;;;0.45;0.45;;;22.00;61.30;;;22.38;43.84;94533.28;5075304;28;20671;-34
2023/05/23 02:47:30;;;;;;;0.50;0.50;;;22.00;61.30;;;22.37;43.62;94529.81;5075112;28;20211;-34
2023/05/23 02:49:57;;;;;;;0.40;0.40;;;22.00;61.30;;;22.36;43.73;94535.41;5075196;28;20217;-34
2023/05/23 02:52:25;;;;;;;0.40;0.40;;;21.90;61.30;;;22.34;43.88;94533.00;5075125;28;20231;-36
2023/05/23 02:54:52;;;;;;;0.30;0.30;;;21.90;61.20;;;22.31;43.96;94527.41;5076574;28;20198;-34
2023/05/23 02:57:20;;;;;;;0.50;0.50;;;21.90;61.30;;;22.28;43.67;94534.09;5075068;28;20200;-34
2023/05/23 02:59:47;;;;;;;0.30;0.30;;;21.90;61.30;;;22.25;43.95;94525.84;5075819;28;20186;-34
2023/05/23 03:02:14;;;;;;;0.43;0.43;;;21.80;62.10;;;22.23;43.95;94526.91;5074940;28;20272;-34
2023/05/23 03:04:41;;;;;;;0.40;0.40;;;21.80;61.20;;;22.22;43.82;94525.31;5074945;28;20297;-34
2023/05/23 03:07:11;;;;;;;0.50;0.50;;;21.80;61.20;;;22.21;43.55;94525.59;5076944;28;20553;-35
2023/05/23 03:09:53;;;;;;;0.50;0.50;;;21.80;61.30;;;22.19;43.59;94522.38;5076101;28;20202;-35
2023/05/23 03:12:21;;;;;;;0.40;0.40;;;21.80;61.30;;;22.18;43.59;94520.78;5074546;28;20594;-34
2023/05/23 03:14:48;;;;;;;0.40;0.40;;;21.80;61.30;;;22.17;43.86;94524.56;5076118;28;20192;-34
2023/05/23 03:17:15;;;;;;;0.40;0.40;;;21.70;61.20;;;22.15;43.68;94524.81;5075643;28;20202;-34
2023/05/23 03:19:42;;;;;;;0.30;0.30;;;21.70;61.30;;;22.13;43.91;94520.81;5075876;28;20176;-35
2023/05/23 03:22:09;;;;;;;0.40;0.40;;;21.70;61.20;;;22.12;43.48;94525.38;5075390;28;20273;-33
2023/05/23 03:24:36;;;;;;;0.40;0.40;;;21.70;61.30;;;22.11;43.97;94523.00;5074823;28;20588;-34
2023/05/23 03:27:04;;;;;;;0.40;0.40;;;21.70;61.30;;;22.11;43.72;94520.31;5075511;28;20283;-36
2023/05/23 03:29:31;;;;;;;0.50;0.50;;;21.70;61.40;;;22.09;43.90;94517.09;5075554;28;20233;-34
2023/05/23 03:31:58;;;;;;;0.40;0.40;;;21.60;61.30;;;22.07;43.58;94518.19;5075307;28;20597;-36
2023/05/23 03:34:26;;;;;;;0.50;0.50;;;21.60;61.30;;;22.05;43.63;94514.19;5074382;28;20217;-35
2023/05/23 03:36:53;;;;;;;0.50;0.50;;;21.60;61.30;;;22.03;43.69;94517.13;5074360;28;20624;-34
2023/05/23 03:39:21;;;;;;;0.40;0.40;;;21.60;61.30;;;22.01;44.05;94513.16;5074553;28;20530;-36
2023/05/23 03:41:48;;;;;;;0.40;0.40;;;21.60;61.30;;;22.00;43.72;94514.22;5074140;28;20235;-35
2023/05/23 03:44:16;;;;;;;0.50;0.50;;;21.60;61.30;;;21.98;43.74;94509.13;5074301;28;20239;-36
2023/05/23 03:46:43;;;;;;;0.40;0.40;;;21.60;61.30;;;21.94;43.80;94513.44;5074304;28;20271;-35
2023/05/23 03:49:10;;;;;;;0.47;0.47;;;21.50;61.20;;;21.91;43.49;94508.66;5057852;28;20227;-37
2023/05/23 03:51:37;;;;;;;0.50;0.50;;;21.50;61.20;;;21.88;43.66;94511.84;5057662;28;20654;-34
2023/05/23 03:54:05;;;;;;;0.40;0.40;;;21.50;61.30;;;21.86;43.98;94514.81;5074182;28;20199;-34
2023/05/23 03:56:32;;;;;;;0.50;0.50;;;21.50;61.30;;;21.84;43.86;94516.94;5074125;28;20199;-34
2023/05/23 03:59:00;;;;;;;0.50;0.50;;;21.40;61.30;;;21.82;44.09;94524.41;5073887;28;20204;-34
2023/05/23 04:01:27;;;;;;;0.50;0.50;;;21.50;61.30;;;21.80;43.91;94515.91;5074053;28;20515;-34
2023/05/23 04:03:54;;;;;;;0.50;0.50;;;21.40;61.30;;;21.79;43.74;94522.31;5074013;28;20630;-34
2023/05/23 04:06:24;;;;;;;0.50;0.50;;;21.40;61.30;;;21.78;43.86;94517.25;5074022;28;20224;-34
2023/05/23 04:08:52;;;;;;;0.40;0.40;;;21.40;61.30;;;21.77;43.85;94520.97;5057415;28;20208;-34
2023/05/23 04:11:20;;;;;;;0.40;0.40;;;21.40;61.40;;;21.77;43.84;94515.63;5074070;28;20254;-34
2023/05/23 04:13:48;;;;;;;0.50;0.50;;;21.40;61.40;;;21.75;44.34;94516.72;5075253;28;20177;-34
2023/05/23 04:16:15;;;;;;;0.43;0.43;;;21.40;61.40;;;21.74;44.46;94520.44;5073947;28;20202;-34
2023/05/23 04:18:45;;;;;;;0.50;0.50;;;21.40;61.50;;;21.75;44.35;94521.22;5073875;28;20661;-34
2023/05/23 04:21:13;;;;;;;0.50;0.50;;;21.40;61.50;;;21.74;43.92;94511.66;5073878;28;20233;-34
2023/05/23 04:23:50;;;;;;;0.50;0.50;;;21.40;61.60;;;21.75;43.92;94516.72;5073859;28;20630;-34
2023/05/23 04:26:18;;;;;;;0.47;0.47;;;21.40;61.70;;;21.75;44.21;94511.38;5074715;28;20629;-34
2023/05/23 04:28:53;;;;;;;0.40;0.40;;;21.30;61.50;;;21.75;43.96;94514.03;5074874;28;20187;-34
2023/05/23 04:31:24;;;;;;;0.40;0.40;;;21.40;61.60;;;21.74;44.04;94515.09;5073743;28;20216;-34
2023/05/23 04:33:51;;;;;;;0.50;0.50;;;21.40;61.60;;;21.73;44.56;94510.03;5074063;28;20571;-34
2023/05/23 04:36:19;;;;;;;0.30;0.30;;;21.40;61.70;;;21.73;44.42;94510.81;5077528;28;20260;-34
2023/05/23 04:38:51;;;;;;;0.43;0.43;;;21.40;61.70;;;21.72;44.37;94500.44;5077663;28;20215;-34
2023/05/23 04:41:22;;;;;;;0.43;0.43;;;21.40;61.80;;;21.73;44.62;94502.81;5077688;28;20523;-34
2023/05/23 04:44:29;;;;;;;0.60;0.60;;;21.40;61.90;;;21.73;44.69;94499.38;5057101;28;20274;-34
2023/05/23 04:47:13;;;;;;;0.40;0.40;;;21.40;62.00;;;21.74;44.98;94503.63;5040278;28;20199;-34
2023/05/23 04:49:59;;;;;;;0.47;0.47;;;21.40;62.10;;;21.74;44.89;94496.41;5071740;28;20591;-34
2023/05/23 04:52:27;;;;;;;0.40;0.40;;;21.40;62.10;;;21.78;44.57;94503.91;5077469;28;20255;-34
2023/05/23 04:54:54;;;;;;;0.40;0.40;;;21.40;62.10;;;21.78;45.10;94503.91;5077471;28;20191;-35
2023/05/23 04:57:22;;;;;;;0.50;0.50;;;21.40;62.20;;;21.81;44.72;94511.34;5078363;28;20186;-34
2023/05/23 04:59:49;;;;;;;0.40;0.40;;;21.50;62.30;;;21.82;45.26;94502.25;5077194;28;20252;-34
2023/05/23 05:02:16;;;;;;;0.47;0.47;;;21.50;62.20;;;21.83;44.85;94503.88;5077305;28;20208;-36
2023/05/23 05:04:43;;;;;;;0.40;0.40;;;21.50;62.30;;;21.84;45.24;94502.81;5077600;28;20204;-34
2023/05/23 05:07:10;;;;;;;0.47;0.47;;;21.50;62.30;;;21.85;45.00;94499.84;5077227;28;20203;-34
2023/05/23 05:09:38;;;;;;;0.50;0.50;;;21.50;62.30;;;21.86;45.08;94503.31;5060666;28;20660;-34
2023/05/23 05:12:06;;;;;;;0.38;0.38;;;21.50;62.40;;;21.87;45.45;94500.38;5060504;28;20326;-34
2023/05/23 05:14:34;;;;;;;0.40;0.40;;;21.60;62.50;;;21.90;45.36;94504.38;5077109;28;20203;-34
2023/05/23 05:17:01;;;;;;;0.40;0.40;;;21.60;62.50;;;21.90;45.12;94502.50;5078020;28;20218;-34
2023/05/23 05:19:36;;;;;;;0.50;0.50;;;21.60;62.50;;;21.90;45.34;94505.16;5076936;28;20204;-34
2023/05/23 05:22:06;;;;;;;0.40;0.40;;;21.60;62.60;;;21.93;45.40;94516.38;5077348;28;20290;-34
2023/05/23 05:24:34;;;;;;;0.50;0.50;;;21.60;62.60;;;21.92;45.60;94502.22;5076907;28;20209;-35
2023/05/23 05:27:01;;;;;;;0.40;0.40;;;21.60;62.60;;;21.95;45.40;94511.53;5076855;28;20291;-35
2023/05/23 05:29:30;;;;;;;0.40;0.40;;;21.60;62.60;;;21.95;45.42;94507.03;5060140;28;20211;-34
2023/05/23 05:31:57;;;;;;;0.43;0.43;;;21.70;62.70;;;21.96;45.63;94516.63;5077659;28;20222;-35
2023/05/23 05:34:24;;;;;;;0.40;0.40;;;21.70;62.70;;;21.98;45.72;94511.78;5076738;28;20199;-35
2023/05/23 05:36:54;;;;;;;0.40;0.40;;;21.70;62.80;;;22.00;45.47;94511.53;5076675;28;20233;-35
2023/05/23 05:39:25;;;;;;;0.40;0.40;;;21.70;62.80;;;22.01;45.47;94510.47;5077011;28;20197;-35
2023/05/23 05:41:52;;;;;;;0.40;0.40;;;21.70;62.80;;;22.02;45.90;94512.88;5076609;28;20205;-35
2023/05/23 05:44:19;;;;;;;0.43;0.43;;;21.80;62.90;;;22.03;45.70;94511.81;5078068;28;20220;-33
2023/05/23 05:46:47;;;;;;;0.40;0.40;;;21.80;62.90;;;22.03;45.99;94519.81;5075643;28;20644;-34
2023/05/23 05:49:14;;;;;;;0.40;0.40;;;21.80;62.90;;;22.05;45.61;94517.66;5059775;28;20304;-33
2023/05/23 05:51:44;;;;;;;0.43;0.43;;;21.80;63.00;;;22.06;46.17;94519.25;5076353;28;20228;-33
2023/05/23 05:54:11;;;;;;;0.40;0.40;;;21.80;62.90;;;22.09;45.97;94523.25;5076373;28;20202;-33
2023/05/23 05:56:39;;;;;;;0.40;0.40;;;21.80;63.00;;;22.10;46.11;94521.38;5076321;28;20237;-34
2023/05/23 05:59:06;;;;;;;0.40;0.40;;;21.90;63.00;;;22.11;46.03;94520.31;5059621;28;20757;-33
2023/05/23 06:01:34;;;;;;;0.40;0.40;;;21.80;63.00;;;22.12;46.29;94525.38;5076523;28;20202;-34
2023/05/23 06:04:01;;;;;;;0.43;0.43;;;21.90;63.10;;;22.13;46.14;94526.16;5076277;28;20290;-37
2023/05/23 06:06:31;;;;;;;0.40;0.40;;;21.90;63.10;;;22.13;46.17;94510.94;5076415;28;20206;-34
2023/05/23 06:08:58;;;;;;;0.50;0.50;;;21.90;63.10;;;22.14;46.45;94512.56;5059650;28;20201;-35
2023/05/23 06:11:25;;;;;;;0.40;0.40;;;21.90;63.10;;;22.15;46.45;94516.81;5075836;28;20269;-35
2023/05/23 06:13:52;;;;;;;0.40;0.40;;;21.90;63.10;;;22.17;46.05;94516.53;5076030;28;20229;-35
2023/05/23 06:16:20;;;;;;;0.40;0.40;;;21.90;63.00;;;22.18;46.33;94520.78;5075988;28;20202;-35
2023/05/23 06:18:47;;;;;;;0.50;0.50;;;21.90;63.10;;;22.20;46.14;94521.31;5075825;28;20649;-35
2023/05/23 06:21:14;;;;;;;0.40;0.40;;;22.00;63.10;;;22.20;46.22;94511.44;5075893;28;20235;-33
2023/05/23 06:23:42;;;;;;;0.50;0.50;;;22.00;63.10;;;22.21;46.17;94513.03;5075820;28;20205;-34
2023/05/23 06:26:09;;;;;;;0.40;0.40;;;22.00;63.10;;;22.22;46.42;94513.84;5059339;28;20210;-35
2023/05/23 06:28:40;;;;;;;0.40;0.40;;;22.00;63.10;;;22.24;46.03;94517.03;5075746;28;20233;-35
2023/05/23 06:31:10;;;;;;;0.40;0.40;;;22.00;63.10;;;22.26;46.37;94514.88;5075569;28;20280;-34
2023/05/23 06:33:38;;;;;;;0.40;0.40;;;22.00;63.20;;;22.27;46.54;94516.47;5076871;28;20697;-34
2023/05/23 06:36:05;;;;;;;0.50;0.50;;;22.00;63.20;;;22.30;46.32;94515.13;5075715;28;20203;-35
2023/05/23 06:38:32;;;;;;;0.40;0.40;;;22.00;63.30;;;22.31;46.10;94509.50;5076479;28;20262;-34
2023/05/23 06:41:01;;;;;;;0.40;0.40;;;22.10;63.30;;;22.32;46.74;94518.34;5076889;28;20706;-42
2023/05/23 06:43:28;;;;;;;0.40;0.40;;;22.10;63.40;;;22.36;46.59;94514.03;5075365;28;20251;-35
2023/05/23 06:46:11;;;;;;;0.50;0.50;;;22.10;63.40;;;22.36;46.55;94514.03;5075462;28;20189;-36
2023/05/23 06:48:39;;;;;;;0.47;0.47;;;22.10;63.40;;;22.38;46.77;94511.91;5075295;28;20204;-34
2023/05/23 06:51:06;;;;;;;0.40;0.40;;;22.10;63.40;;;22.40;46.42;94507.09;5075140;28;20237;-34
2023/05/23 06:53:33;;;;;;;0.50;0.50;;;22.20;63.60;;;22.43;46.65;94505.75;5075139;28;20225;-43
2023/05/23 06:56:00;;;;;;;0.50;0.50;;;22.20;63.60;;;22.45;46.57;94506.25;5075202;28;20204;-34
2023/05/23 06:58:30;;;;;;;0.40;0.40;;;22.20;63.60;;;22.46;46.67;94508.66;5075348;28;20671;-35
2023/05/23 07:01:01;;;;;;;0.40;0.40;;;22.20;63.60;;;22.47;46.57;94502.25;5074971;28;20195;-34
2023/05/23 07:03:37;;;;;;;0.40;0.40;;;22.20;63.60;;;22.51;46.77;94499.81;5075049;28;20209;-34
2023/05/23 07:06:07;;;;;;;0.40;0.40;;;22.20;63.60;;;22.52;46.76;94507.56;5075094;28;20212;-35
2023/05/23 07:08:34;;;;;;;0.35;0.35;;;22.30;63.70;;;22.54;46.66;94513.44;5058492;28;20653;-34
2023/05/23 07:11:04;;;;;;;0.38;0.38;;;22.30;63.80;;;22.55;46.96;94501.63;5074492;28;20718;-35
2023/05/23 07:13:38;;;;;;;0.40;0.40;;;22.30;63.80;;;22.57;47.02;94501.38;5075118;28;20551;-35
2023/05/23 07:16:05;;;;;;;0.30;0.30;;;22.30;63.80;;;22.60;46.83;94492.78;5074799;28;20195;-35
2023/05/23 07:18:36;;;;;;;0.40;0.40;;;22.30;63.90;;;22.62;46.69;94497.84;5075170;28;20207;-35
2023/05/23 07:21:05;;;;;;;0.40;0.40;;;22.30;63.90;;;22.66;46.94;94496.25;5074556;28;20222;-35
2023/05/23 07:23:33;;;;;;;0.40;0.40;;;22.40;64.00;;;22.68;47.02;94492.22;5074693;28;20202;-34
2023/05/23 07:26:01;;;;;;;0.40;0.40;;;22.40;64.00;;;22.68;47.12;94484.19;5074931;28;20716;-36
2023/05/23 07:28:44;;;;;;;0.30;0.30;;;22.40;64.00;;;22.71;46.98;94480.94;5074601;28;20198;-36
2023/05/23 07:31:12;;;;;;;0.50;0.50;;;22.50;64.10;;;22.75;47.19;94475.84;5074500;28;20272;-36
2023/05/23 07:33:41;;;;;;;0.40;0.40;;;22.50;65.00;;;22.77;47.22;94476.38;5074618;28;20700;-34
2023/05/23 07:36:10;;;;;;;0.40;0.40;;;22.50;64.20;;;22.81;47.45;94482.75;5074763;28;20202;-35
2023/05/23 07:38:38;;;;;;;0.50;0.50;;;22.50;64.20;;;22.83;47.06;94487.81;5074564;28;20194;-35
2023/05/23 07:41:05;;;;;;;0.40;0.40;;;22.50;64.20;;;22.86;47.12;94482.72;5075228;28;20197;-35
2023/05/23 07:43:39;;;;;;;0.50;0.50;;;22.60;64.40;;;22.90;47.38;94488.31;5074373;28;20198;-34
2023/05/23 07:46:07;;;;;;;0.30;0.30;;;22.60;65.40;;;22.93;47.60;94489.63;5074354;28;20199;-35
2023/05/23 07:48:35;;;;;;;0.40;0.40;;;22.60;64.40;;;22.96;47.15;94489.03;5074358;28;20219;-34
2023/05/23 07:51:03;;;;;;;0.40;0.40;;;22.70;64.50;;;23.00;47.43;94487.41;5074044;28;20206;-34
2023/05/23 07:53:30;;;;;;;0.30;0.30;;;22.70;64.40;;;23.03;47.08;94476.16;5057686;28;20215;-35
2023/05/23 07:55:58;;;;;;;0.30;0.30;;;22.70;64.50;;;23.08;47.57;94488.69;5074181;28;20290;-35
2023/05/23 07:58:29;;;;;;;0.40;0.40;;;22.80;64.50;;;23.12;47.58;94487.03;5058228;28;20626;-33
2023/05/23 08:00:58;;;;;;;0.30;0.30;;;22.80;64.50;;;23.17;47.33;94484.34;5074022;28;20210;-35
2023/05/23 08:03:43;;;;;;;0.30;0.30;;;22.90;64.60;;;23.20;47.41;94489.13;5075430;28;20202;-34
2023/05/23 08:06:17;;;;;;;0.40;0.40;;;22.90;64.50;;;23.27;47.18;94496.84;5074093;28;20657;-34
2023/05/23 08:08:45;;;;;;;0.40;0.40;;;23.00;64.40;;;23.31;47.26;94498.69;5075084;28;20710;-45
2023/05/23 08:11:14;;;;;;;0.40;0.40;;;23.00;64.40;;;23.36;47.69;94499.69;5073273;28;20211;-35
2023/05/23 08:13:45;;;;;;;0.30;0.30;;;23.10;64.40;;;23.42;47.48;94495.88;5074060;28;20311;-34
2023/05/23 08:16:33;;;;;;;0.30;0.30;;;23.10;64.40;;;23.44;47.58;94502.53;5075269;28;20294;-35
2023/05/23 08:19:01;;;;;;;0.40;0.40;;;23.20;64.40;;;23.49;47.33;94496.34;5073988;28;20196;-35
2023/05/23 08:21:28;;;;;;;0.32;0.32;;;23.20;64.40;;;23.53;47.29;94502.72;5073953;28;20201;-35
2023/05/23 08:23:55;;;;;;;0.40;0.40;;;23.20;64.30;;;23.56;47.47;94499.50;5075222;28;20196;-34
2023/05/23 08:26:22;;;;;;;0.30;0.30;;;23.30;64.40;;;23.60;47.15;94494.38;5073869;28;20201;-34
2023/05/23 08:28:51;;;;;;;0.43;0.43;;;23.30;64.30;;;23.63;47.51;94499.13;5057584;28;20196;-35
2023/05/23 08:31:19;;;;;;;0.30;0.30;;;23.30;64.20;;;23.65;47.13;94495.09;5073622;28;20257;-34
2023/05/23 08:33:46;;;;;;;0.35;0.35;;;23.40;64.30;;;23.69;47.21;94494.53;5074690;28;20226;-34
2023/05/23 08:36:13;;;;;;;0.40;0.40;;;23.40;64.30;;;23.72;47.13;94499.34;5074716;28;20624;-34
2023/05/23 08:38:42;;;;;;;0.40;0.40;;;23.40;64.20;;;23.75;47.18;94499.53;5074029;28;20201;-35
2023/05/23 08:41:22;;;;;;;0.30;0.30;;;23.40;64.20;;;23.78;47.25;94495.50;5073650;28;20208;-35
2023/05/23 08:43:56;;;;;;;0.32;0.32;;;23.50;64.30;;;23.81;47.24;94494.94;5073686;28;20688;-34
2023/05/23 08:46:28;;;;;;;0.50;0.50;;;23.50;64.40;;;23.85;47.17;94497.81;5073793;28;20654;-37
2023/05/23 08:48:57;;;;;;;0.40;0.40;;;23.60;64.40;;;23.86;47.44;94497.53;5057186;28;20663;-35
2023/05/23 08:51:27;;;;;;;0.40;0.40;;;23.60;64.20;;;23.90;46.98;94501.25;5073785;28;20609;-34
2023/05/23 08:53:58;;;;;;;0.50;0.50;;;23.60;64.00;;;23.93;46.70;94502.59;5073539;28;20607;-35
2023/05/23 08:56:27;;;;;;;0.40;0.40;;;23.70;64.00;;;23.94;46.68;94499.63;5073711;28;20199;-34
2023/05/23 08:58:57;;;;;;;0.40;0.40;;;23.70;64.00;;;23.98;46.93;94503.31;5057192;28;20196;-37
2023/05/23 09:01:26;;;;;;;0.30;0.30;;;23.70;65.00;;;24.01;46.87;94499.28;5057208;28;20573;-37
2023/05/23 09:04:01;;;;;;;0.30;0.30;;;23.70;64.20;;;24.05;47.04;94502.19;5057454;28;20219;-35
2023/05/23 09:06:36;;;;;;;0.30;0.30;;;23.80;64.20;;;24.09;47.03;94500.53;5073553;28;20193;-44
2023/05/23 09:09:06;;;;;;;0.40;0.40;;;23.80;64.20;;;24.12;46.55;94502.59;5073538;28;20549;-35
2023/05/23 09:11:33;;;;;;;0.50;0.50;;;23.80;64.00;;;24.16;46.77;94500.16;5073100;28;20277;-35
2023/05/23 09:14:06;;;;;;;0.40;0.40;;;23.90;63.90;;;24.18;46.30;94506.84;5057578;28;20675;-35
2023/05/23 09:16:34;;;;;;;0.40;0.40;;;23.90;63.80;;;24.23;46.85;94497.91;5073420;28;20196;-35
2023/05/23 09:19:12;;;;;;;0.30;0.30;;;23.90;63.70;;;24.26;46.40;94495.44;5074036;28;20200;-34
2023/05/23 09:21:44;;;;;;;0.30;0.30;;;24.00;63.80;;;24.27;46.28;94486.34;5074229;28;20189;-34
2023/05/23 09:24:21;;;;;;;0.43;0.43;;;24.00;63.60;;;24.32;46.28;94495.41;5076979;28;20216;-34
2023/05/23 09:26:48;;;;;;;0.52;0.52;;;24.00;63.60;;;24.38;46.25;94491.56;5077872;28;20208;-34
2023/05/23 09:29:20;;;;;;;0.50;0.50;;;24.00;63.60;;;24.41;46.27;94488.28;5076822;28;20198;-35
2023/05/23 09:31:47;;;;;;;0.50;0.50;;;24.10;63.60;;;24.43;46.61;94494.97;5076719;28;20523;-34
2023/05/23 09:34:14;;;;;;;0.30;0.30;;;24.10;63.50;;;24.48;45.95;94479.91;5077610;28;20262;-35
2023/05/23 09:36:43;;;;;;;0.40;0.40;;;24.20;63.40;;;24.53;45.94;94479.81;5076759;28;20228;-35
2023/05/23 09:39:11;;;;;;;0.30;0.30;;;24.20;63.60;;;24.57;46.07;94480.81;5076657;28;20193;-35
2023/05/23 09:41:39;;;;;;;0.50;0.50;;;24.20;63.60;;;24.60;46.09;94490.97;5076489;28;20593;-34
2023/05/23 09:44:09;;;;;;;0.30;0.30;;;24.30;63.50;;;24.65;46.00;94490.91;5077794;28;20207;-34
2023/05/23 09:46:37;;;;;;;0.40;0.40;;;24.30;63.50;;;24.67;46.18;94490.63;5060186;28;20217;-34
2023/05/23 09:49:16;;;;;;;0.32;0.32;;;24.30;63.50;;;24.71;46.18;94484.41;5076506;28;20209;-34
2023/05/23 09:51:57;;;;;;;0.50;0.50;;;24.40;63.50;;;24.73;45.88;94494.81;5076357;28;20291;-34
2023/05/23 09:54:25;;;;;;;0.45;0.45;;;24.40;63.40;;;24.76;45.67;94488.88;5077332;28;20230;-34
2023/05/23 09:56:55;;;;;;;0.50;0.50;;;24.40;63.30;;;24.81;45.56;94482.66;5076403;28;20689;-34
2023/05/23 09:59:27;;;;;;;0.40;0.40;;;24.40;63.10;;;24.83;45.51;94481.28;5076525;28;20606;-33
2023/05/23 10:01:57;;;;;;;0.30;0.30;;;24.50;63.10;;;24.87;45.76;94473.44;5077382;28;20613;-33
2023/05/23 10:04:25;;;;;;;0.38;0.38;;;24.50;63.00;;;24.91;45.38;94469.06;5059881;28;20197;-34
2023/05/23 10:06:58;;;;;;;0.60;0.60;;;24.60;63.90;;;24.95;45.37;94472.78;5077157;28;20199;-34
2023/05/23 10:09:28;;;;;;;0.40;0.40;;;24.60;63.10;;;25.00;45.22;94469.19;5076625;28;20185;-34
2023/05/23 10:12:31;;;;;;;0.30;0.30;;;24.60;63.10;;;25.02;45.36;94470.47;5077022;28;20317;-34
2023/05/23 10:15:04;;;;;;;0.30;0.30;;;24.70;63.10;;;25.05;45.04;94469.13;5077014;28;20187;-34
2023/05/23 10:18:01;;;;;;;0.30;0.30;;;24.70;62.80;;;25.07;45.26;94465.03;5076920;28;20555;-34
2023/05/23 10:20:33;;;;;;;0.40;0.40;;;24.80;62.70;;;25.15;44.90;94481.56;5077195;28;20278;-34
2023/05/23 10:23:02;;;;;;;0.40;0.40;;;24.80;62.60;;;25.19;44.95;94475.28;5076781;28;20291;-34
2023/05/23 10:25:29;;;;;;;0.30;0.30;;;24.80;62.90;;;25.23;44.95;94473.63;5076814;28;20199;-34
2023/05/23 10:27:58;;;;;;;0.30;0.30;;;24.90;63.00;;;25.29;45.08;94484.25;5076899;28;20636;-34
2023/05/23 10:30:29;;;;;;;0.30;0.30;;;24.90;63.00;;;25.32;44.89;94470.28;5076999;28;20237;-34
2023/05/23 10:32:58;;;;;;;0.30;0.30;;;25.00;62.90;;;25.33;44.73;94479.88;5076013;28;20211;-34